• Join FlightAware (Why Join?)
  • Login
  • US Flag 
01:08PM EDT


 

Airport Tracker/Info


-or-


 

Live Flight TrackerFlight Track Log ✈ DAL3673 ✈ 22-Apr-2013 ✈ KMSP - KLSE

Flight Track Log - Related Links

Times and Time Zones

All times are in EDT time to prevent confusion due to time zone crossing. See the DAL3673 flight status page for this flight to view local times or setup timezone preferences in your user account.

Time Position Orientation Groundspeed Altitude Reporting Facility
EDT Latitude Longitude Course Direction KTS MPH feet Rate Location/Type
03:43PM 44.8886 -93.2569 181° South 184 212 2,100  Level FAA TRACON SMA TRACON (SMA)
03:44PM 44.8803 -93.3144 258° West 222 255 3,500 1,980 Climbing FAA TRACON SMA TRACON (SMA)
03:44PM 44.8750 -93.3531 259° West 254 292 4,100 2,220 Climbing FAA TRACON SMA TRACON (SMA)
03:45PM 44.8708 -93.3856 260° West 272 313 5,000 2,580 Climbing FAA TRACON SMA TRACON (SMA)
03:45PM 44.8667 -93.4186 260° West 279 321 5,900 2,580 Climbing FAA TRACON SMA TRACON (SMA)
03:45PM 44.8561 -93.4567 249° West 282 325 6,800 1,620 Climbing FAA TRACON SMA TRACON (SMA)
03:46PM 44.8372 -93.4736 212° Southwest 277 319 7,000 300 Climbing FAA TRACON SMA TRACON (SMA)
03:46PM 44.8147 -93.4769 186° South 266 306 7,000 600 Level FAA TRACON SMA TRACON (SMA)
03:46PM 44.7864 -93.4794 184° South 263 303 7,400 1,800 Climbing FAA TRACON SMA TRACON (SMA)
03:47PM 44.6797 -92.8146 139° Southeast  Level Estimated
03:47PM 44.7644 -93.4814 184° South 261 300 8,200  Level FAA TRACON SMA TRACON (SMA)
03:47PM 44.7436 -93.4783 174° South 257 296 8,800 1,620 Climbing FAA TRACON SMA TRACON (SMA)
03:47PM 44.7228 -93.4519 138° Southeast 265 305 9,300 1,200 Climbing FAA TRACON SMA TRACON (SMA)
03:48PM 44.6290 -92.7132 141° Southeast  Level Estimated
03:48PM 44.7086 -93.4269 129° Southeast 266 306 9,600  Level FAA TRACON SMA TRACON (SMA)
03:48PM 44.6956 -93.3994 124° Southeast 273 314 10,100 1,500 Climbing FAA TRACON SMA TRACON (SMA)
03:48PM 44.6822 -93.3625 117° Southeast 276 318 10,600 1,200 Climbing FAA TRACON SMA TRACON (SMA)
03:49PM 44.5408 -92.7149 181° South  Level FlightAware Approximate
03:49PM 44.6714 -93.3311 116° Southeast 283 326 10,900  Level FAA TRACON SMA TRACON (SMA)
03:49PM 44.6603 -93.3000 117° Southeast 289 333 11,000 120 Climbing FAA TRACON SMA TRACON (SMA)
03:49PM 44.6467 -93.2600 116° Southeast 293 337 11,000  Level FAA TRACON SMA TRACON (SMA)
03:50PM 44.6353 -93.2281 117° Southeast 296 341 11,000  Level FAA TRACON SMA TRACON (SMA)
03:50PM 44.6097 -93.1528 115° Southeast 308 354 11,000  Level FAA TRACON SMA TRACON (SMA)
03:51PM 44.5981 -93.1192 116° Southeast 309 356 11,000  Level FAA TRACON SMA TRACON (SMA)
03:51PM 44.5864 -93.0861 116° Southeast 310 357 11,000  Level FAA TRACON SMA TRACON (SMA)
03:51PM 44.5722 -93.0436 115° Southeast 312 359 11,000  Level FAA TRACON SMA TRACON (SMA)
03:52PM 44.5603 -93.0100 116° Southeast 313 360 11,000  Level FAA TRACON SMA TRACON (SMA)
03:52PM 44.5447 -92.9681 117° Southeast 315 362 11,000  Level FAA TRACON SMA TRACON (SMA)
03:52PM 44.5325 -92.9342 117° Southeast 314 361 11,000  Level FAA TRACON SMA TRACON (SMA)
03:53PM 44.5194 -92.9014 119° Southeast 314 361 11,000  Level FAA TRACON SMA TRACON (SMA)
03:53PM 44.5075 -92.8672 116° Southeast 316 364 11,000  Level FAA TRACON SMA TRACON (SMA)
03:53PM 44.4917 -92.8256 118° Southeast 317 365 11,000  Level FAA TRACON SMA TRACON (SMA)
03:54PM 44.4789 -92.7919 118° Southeast 316 364 11,000  Level FAA TRACON SMA TRACON (SMA)
03:54PM 44.4664 -92.7578 117° Southeast 318 366 11,000 120 Level FAA TRACON SMA TRACON (SMA)
03:54PM 44.4506 -92.7153 118° Southeast 318 366 11,100 120 Climbing FAA TRACON SMA TRACON (SMA)
03:55PM 44.4383 -92.6811 117° Southeast 318 366 11,100  Level FAA TRACON SMA TRACON (SMA)
03:55PM 44.4261 -92.6467 116° Southeast 320 368 11,100  Level FAA TRACON SMA TRACON (SMA)
03:55PM 44.4094 -92.6050 119° Southeast 320 368 11,100  Level FAA TRACON SMA TRACON (SMA)
03:56PM 44.3972 -92.5711 117° Southeast 318 366 11,100  Level FAA TRACON SMA TRACON (SMA)
03:56PM 44.3817 -92.5292 117° Southeast 317 365 11,100  Level FAA TRACON SMA TRACON (SMA)
03:56PM 44.3689 -92.4964 119° Southeast 313 360 11,100  Level FAA TRACON SMA TRACON (SMA)
03:57PM 44.3581 -92.4622 114° Southeast 312 359 11,100  Level FAA TRACON SMA TRACON (SMA)
03:57PM 44.3444 -92.4306 121° Southeast 309 356 11,100  Level FAA TRACON SMA TRACON (SMA)
03:57PM 44.3292 -92.3903 118° Southeast 306 352 11,100  Level FAA TRACON SMA TRACON (SMA)
03:58PM 44.3183 -92.3556 114° Southeast 309 356 11,100  Level FAA TRACON SMA TRACON (SMA)
03:58PM 44.3053 -92.3247 121° Southeast 305 351 11,100  Level FAA TRACON SMA TRACON (SMA)
03:58PM 44.2903 -92.2842 117° Southeast 304 350 11,100  Level FAA TRACON SMA TRACON (SMA)
03:59PM 44.2781 -92.2528 119° Southeast 303 349 11,100  Level FAA TRACON SMA TRACON (SMA)
03:59PM 44.2669 -92.2197 115° Southeast 305 351 11,100  Level FAA TRACON SMA TRACON (SMA)
03:59PM 44.2508 -92.1808 120° Southeast 302 348 11,100  Level FAA TRACON SMA TRACON (SMA)
04:00PM 44.2447 -92.1647 118° Southeast 303 349 11,100 -120 Level FAA TRACON SMA TRACON (SMA)
04:00PM 44.2053 -92.0847 125° Southeast 300 345 11,000 -660 Descending Minneapolis Center
04:02PM 44.1683 -91.9881 118° Southeast 287 330 10,000 -1,140 Descending Minneapolis Center
04:03PM 44.1286 -91.8886 119° Southeast 275 316 8,700 -1,200 Descending Minneapolis Center
04:04PM 44.0939 -91.7986 118° Southeast 269 310 7,600 -900 Descending Minneapolis Center
04:05PM 44.0919 -91.6953 91° East 261 300 6,900 -360 Descending Minneapolis Center
04:06PM 44.1064 -91.6081 77° East 237 273 6,900  Level Minneapolis Center
04:07PM 44.1211 -91.5178 77° East 241 277 6,900 -180 Level Minneapolis Center
04:08PM 44.1372 -91.4236 77° East 231 266 6,600 -600 Descending Minneapolis Center
04:09PM 44.1517 -91.3428 76° East 219 252 5,700 -840 Descending Minneapolis Center
04:10PM 44.1650 -91.2617 77° East 213 245 4,900 -420 Descending Minneapolis Center
04:11PM 44.1739 -91.1828 81° East 200 230 4,900  Level Minneapolis Center
04:12PM 44.1528 -91.1150 113° Southeast 192 221 4,900 -60 Level Minneapolis Center
04:13PM 44.1300 -91.1633 237° Southwest 175 201 4,800 -540 Descending Minneapolis Center
04:14PM 44.1111 -91.2250 247° West 168 193 3,800 -720 Descending Minneapolis Center
04:15PM 44.0753 -91.2619 217° Southwest 161 185 3,400 -240 Descending Minneapolis Center
04:16PM 44.0322 -91.2600 178° South 149 171 3,400  Level Minneapolis Center